<?xml version="1.0" encoding="UTF-8" standalone="no" ?>
<gpx xmlns="http://www.topografix.com/GPX/1/1" xmlns:xsi="http://www.w3.org/2001/XMLSchema-instance" xsi:schemaLocation="http://www.topografix.com/GPX/1/1 http://www.topografix.com/GPX/1/1/gpx.xsd" version="1.1" creator="VisuGPX - https://www.visugpx.com">
  <metadata>
    <name>Suède</name>
  </metadata>
  <trk>
    <name><![CDATA[Tour d'Europe: étape 103]]></name>
    <trkseg>
      <trkpt lat="61.54885" lon="17.04364">
        <ele>35.670077</ele>
        <time>2020-10-09T08:03:29.697Z</time>
      </trkpt>
      <trkpt lat="61.55024" lon="17.0408">
        <ele>45.342234</ele>
        <time>2020-10-09T08:04:52.688Z</time>
      </trkpt>
      <trkpt lat="61.55067" lon="17.03638">
        <ele>42.296791</ele>
        <time>2020-10-09T08:05:49.688Z</time>
      </trkpt>
      <trkpt lat="61.55022" lon="17.03245">
        <ele>40.722259</ele>
        <time>2020-10-09T08:06:29.702Z</time>
      </trkpt>
      <trkpt lat="61.5491" lon="17.02823">
        <ele>41.274592</ele>
        <time>2020-10-09T08:07:23.700Z</time>
      </trkpt>
      <trkpt lat="61.54718" lon="17.02539">
        <ele>35.033336</ele>
        <time>2020-10-09T08:08:10.738Z</time>
      </trkpt>
      <trkpt lat="61.54667" lon="17.02144">
        <ele>37.927245</ele>
        <time>2020-10-09T08:09:16.685Z</time>
      </trkpt>
      <trkpt lat="61.54647" lon="17.01768">
        <ele>43.184652</ele>
        <time>2020-10-09T08:10:22.686Z</time>
      </trkpt>
      <trkpt lat="61.54659" lon="17.01403">
        <ele>45.602624</ele>
        <time>2020-10-09T08:11:23.692Z</time>
      </trkpt>
      <trkpt lat="61.54569" lon="17.0106">
        <ele>44.80727</ele>
        <time>2020-10-09T08:12:31.690Z</time>
      </trkpt>
      <trkpt lat="61.54573" lon="17.00608">
        <ele>50.625698</ele>
        <time>2020-10-09T08:13:44.697Z</time>
      </trkpt>
      <trkpt lat="61.54593" lon="17.00204">
        <ele>59.930473</ele>
        <time>2020-10-09T08:15:27.709Z</time>
      </trkpt>
      <trkpt lat="61.54643" lon="16.99758">
        <ele>66.815369</ele>
        <time>2020-10-09T08:16:29.689Z</time>
      </trkpt>
      <trkpt lat="61.54592" lon="16.99346">
        <ele>72.643903</ele>
        <time>2020-10-09T08:17:42.694Z</time>
      </trkpt>
      <trkpt lat="61.54452" lon="16.9904">
        <ele>68.920487</ele>
        <time>2020-10-09T08:18:42.742Z</time>
      </trkpt>
      <trkpt lat="61.54294" lon="16.98764">
        <ele>65.589063</ele>
        <time>2020-10-09T08:19:23.708Z</time>
      </trkpt>
      <trkpt lat="61.54088" lon="16.98513">
        <ele>64.485387</ele>
        <time>2020-10-09T08:20:23.745Z</time>
      </trkpt>
      <trkpt lat="61.5387" lon="16.98276">
        <ele>67.488263</ele>
        <time>2020-10-09T08:21:23.753Z</time>
      </trkpt>
      <trkpt lat="61.53719" lon="16.97999">
        <ele>76.409683</ele>
        <time>2020-10-09T08:22:47.711Z</time>
      </trkpt>
      <trkpt lat="61.53584" lon="16.97683">
        <ele>84.732892</ele>
        <time>2020-10-09T08:24:08.690Z</time>
      </trkpt>
      <trkpt lat="61.53413" lon="16.97391">
        <ele>95.243345</ele>
        <time>2020-10-09T08:27:35.695Z</time>
      </trkpt>
      <trkpt lat="61.5326" lon="16.97085">
        <ele>86.887154</ele>
        <time>2020-10-09T08:28:27.711Z</time>
      </trkpt>
      <trkpt lat="61.53171" lon="16.96643">
        <ele>77.861112</ele>
        <time>2020-10-09T08:29:07.709Z</time>
      </trkpt>
      <trkpt lat="61.53081" lon="16.96259">
        <ele>82.077542</ele>
        <time>2020-10-09T08:30:07.697Z</time>
      </trkpt>
      <trkpt lat="61.52914" lon="16.95928">
        <ele>85.894027</ele>
        <time>2020-10-09T08:30:56.694Z</time>
      </trkpt>
      <trkpt lat="61.52703" lon="16.95655">
        <ele>74.448215</ele>
        <time>2020-10-09T08:31:36.713Z</time>
      </trkpt>
      <trkpt lat="61.52487" lon="16.95607">
        <ele>65.907821</ele>
        <time>2020-10-09T08:32:25.694Z</time>
      </trkpt>
      <trkpt lat="61.5228" lon="16.95694">
        <ele>67.580256</ele>
        <time>2020-10-09T08:33:18.739Z</time>
      </trkpt>
      <trkpt lat="61.52055" lon="16.95782">
        <ele>72.087757</ele>
        <time>2020-10-09T08:34:21.694Z</time>
      </trkpt>
      <trkpt lat="61.51856" lon="16.95836">
        <ele>78.296245</ele>
        <time>2020-10-09T08:35:23.706Z</time>
      </trkpt>
      <trkpt lat="61.51653" lon="16.9577">
        <ele>88.563511</ele>
        <time>2020-10-09T08:36:47.717Z</time>
      </trkpt>
      <trkpt lat="61.51462" lon="16.95663">
        <ele>94.054649</ele>
        <time>2020-10-09T08:38:22.711Z</time>
      </trkpt>
      <trkpt lat="61.51266" lon="16.9555">
        <ele>95.446418</ele>
        <time>2020-10-09T08:39:23.708Z</time>
      </trkpt>
      <trkpt lat="61.51071" lon="16.9544">
        <ele>100.050204</ele>
        <time>2020-10-09T08:40:24.715Z</time>
      </trkpt>
      <trkpt lat="61.50879" lon="16.95312">
        <ele>108.80043</ele>
        <time>2020-10-09T08:41:32.706Z</time>
      </trkpt>
      <trkpt lat="61.50684" lon="16.95074">
        <ele>118.081557</ele>
        <time>2020-10-09T08:42:40.700Z</time>
      </trkpt>
      <trkpt lat="61.50498" lon="16.94846">
        <ele>116.221871</ele>
        <time>2020-10-09T08:43:27.711Z</time>
      </trkpt>
      <trkpt lat="61.50322" lon="16.94629">
        <ele>115.782201</ele>
        <time>2020-10-09T08:44:45.715Z</time>
      </trkpt>
      <trkpt lat="61.50077" lon="16.94459">
        <ele>108.725636</ele>
        <time>2020-10-09T08:45:30.705Z</time>
      </trkpt>
      <trkpt lat="61.49845" lon="16.94424">
        <ele>108.935395</ele>
        <time>2020-10-09T08:46:30.700Z</time>
      </trkpt>
      <trkpt lat="61.49607" lon="16.94394">
        <ele>101.663819</ele>
        <time>2020-10-09T08:47:20.697Z</time>
      </trkpt>
      <trkpt lat="61.49372" lon="16.9439">
        <ele>90.93483</ele>
        <time>2020-10-09T08:47:45.697Z</time>
      </trkpt>
      <trkpt lat="61.49214" lon="16.94105">
        <ele>93.744234</ele>
        <time>2020-10-09T08:48:46.715Z</time>
      </trkpt>
      <trkpt lat="61.49017" lon="16.93814">
        <ele>94.631034</ele>
        <time>2020-10-09T08:49:42.717Z</time>
      </trkpt>
      <trkpt lat="61.48798" lon="16.93712">
        <ele>82.249558</ele>
        <time>2020-10-09T08:50:26.698Z</time>
      </trkpt>
      <trkpt lat="61.48567" lon="16.9363">
        <ele>71.840893</ele>
        <time>2020-10-09T08:51:06.724Z</time>
      </trkpt>
      <trkpt lat="61.4841" lon="16.93888">
        <ele>74.173712</ele>
        <time>2020-10-09T08:52:10.699Z</time>
      </trkpt>
      <trkpt lat="61.48215" lon="16.94013">
        <ele>78.269387</ele>
        <time>2020-10-09T08:53:37.696Z</time>
      </trkpt>
      <trkpt lat="61.48019" lon="16.94128">
        <ele>84.885094</ele>
        <time>2020-10-09T08:55:02.712Z</time>
      </trkpt>
      <trkpt lat="61.47819" lon="16.94157">
        <ele>99.246655</ele>
        <time>2020-10-09T08:56:31.699Z</time>
      </trkpt>
      <trkpt lat="61.47622" lon="16.94185">
        <ele>110.785236</ele>
        <time>2020-10-09T08:58:18.701Z</time>
      </trkpt>
      <trkpt lat="61.47404" lon="16.94214">
        <ele>107.543331</ele>
        <time>2020-10-09T08:59:41.766Z</time>
      </trkpt>
      <trkpt lat="61.47197" lon="16.94245">
        <ele>101.28009</ele>
        <time>2020-10-09T09:00:51.694Z</time>
      </trkpt>
      <trkpt lat="61.46984" lon="16.9427">
        <ele>100.663751</ele>
        <time>2020-10-09T09:01:51.702Z</time>
      </trkpt>
      <trkpt lat="61.46758" lon="16.94307">
        <ele>105.666378</ele>
        <time>2020-10-09T09:02:51.700Z</time>
      </trkpt>
      <trkpt lat="61.4653" lon="16.94336">
        <ele>98.844272</ele>
        <time>2020-10-09T09:03:51.729Z</time>
      </trkpt>
      <trkpt lat="61.46311" lon="16.94396">
        <ele>110.18497</ele>
        <time>2020-10-09T09:04:52.702Z</time>
      </trkpt>
      <trkpt lat="61.46116" lon="16.94517">
        <ele>99.77562</ele>
        <time>2020-10-09T09:05:35.715Z</time>
      </trkpt>
      <trkpt lat="61.45928" lon="16.9463">
        <ele>94.23247</ele>
        <time>2020-10-09T09:06:15.744Z</time>
      </trkpt>
      <trkpt lat="61.4572" lon="16.94754">
        <ele>96.420811</ele>
        <time>2020-10-09T09:06:57.721Z</time>
      </trkpt>
      <trkpt lat="61.45484" lon="16.94896">
        <ele>91.851493</ele>
        <time>2020-10-09T09:07:37.694Z</time>
      </trkpt>
      <trkpt lat="61.45229" lon="16.95052">
        <ele>84.952665</ele>
        <time>2020-10-09T09:08:17.706Z</time>
      </trkpt>
      <trkpt lat="61.45013" lon="16.95182">
        <ele>85.584018</ele>
        <time>2020-10-09T09:09:11.700Z</time>
      </trkpt>
      <trkpt lat="61.44822" lon="16.95296">
        <ele>83.016583</ele>
        <time>2020-10-09T09:09:54.716Z</time>
      </trkpt>
      <trkpt lat="61.44636" lon="16.9552">
        <ele>77.120544</ele>
        <time>2020-10-09T09:10:36.718Z</time>
      </trkpt>
      <trkpt lat="61.44455" lon="16.95807">
        <ele>73.272136</ele>
        <time>2020-10-09T09:11:16.713Z</time>
      </trkpt>
      <trkpt lat="61.44284" lon="16.96081">
        <ele>78.844635</ele>
        <time>2020-10-09T09:12:25.727Z</time>
      </trkpt>
      <trkpt lat="61.44068" lon="16.9632">
        <ele>77.941863</ele>
        <time>2020-10-09T09:13:28.745Z</time>
      </trkpt>
      <trkpt lat="61.4385" lon="16.96265">
        <ele>76.060336</ele>
        <time>2020-10-09T09:14:29.720Z</time>
      </trkpt>
      <trkpt lat="61.43639" lon="16.96205">
        <ele>78.603032</ele>
        <time>2020-10-09T09:15:24.699Z</time>
      </trkpt>
      <trkpt lat="61.43435" lon="16.96196">
        <ele>76.075801</ele>
        <time>2020-10-09T09:16:04.706Z</time>
      </trkpt>
      <trkpt lat="61.43194" lon="16.9619">
        <ele>73.707204</ele>
        <time>2020-10-09T09:16:48.722Z</time>
      </trkpt>
      <trkpt lat="61.42961" lon="16.96213">
        <ele>75.952285</ele>
        <time>2020-10-09T09:17:45.725Z</time>
      </trkpt>
      <trkpt lat="61.42757" lon="16.96251">
        <ele>81.657766</ele>
        <time>2020-10-09T09:18:55.739Z</time>
      </trkpt>
      <trkpt lat="61.42532" lon="16.9629">
        <ele>77.231001</ele>
        <time>2020-10-09T09:19:57.712Z</time>
      </trkpt>
      <trkpt lat="61.42324" lon="16.96328">
        <ele>78.938088</ele>
        <time>2020-10-09T09:21:35.718Z</time>
      </trkpt>
      <trkpt lat="61.42103" lon="16.9637">
        <ele>77.349282</ele>
        <time>2020-10-09T09:22:19.718Z</time>
      </trkpt>
      <trkpt lat="61.41879" lon="16.96343">
        <ele>81.64433</ele>
        <time>2020-10-09T09:23:15.722Z</time>
      </trkpt>
      <trkpt lat="61.41608" lon="16.96192">
        <ele>64.956443</ele>
        <time>2020-10-09T09:23:55.706Z</time>
      </trkpt>
      <trkpt lat="61.41401" lon="16.95954">
        <ele>64.152291</ele>
        <time>2020-10-09T09:24:55.725Z</time>
      </trkpt>
      <trkpt lat="61.41187" lon="16.95873">
        <ele>74.019428</ele>
        <time>2020-10-09T09:25:58.726Z</time>
      </trkpt>
      <trkpt lat="61.40987" lon="16.95815">
        <ele>78.345662</ele>
        <time>2020-10-09T09:27:05.726Z</time>
      </trkpt>
      <trkpt lat="61.40785" lon="16.95754">
        <ele>81.138598</ele>
        <time>2020-10-09T09:28:13.725Z</time>
      </trkpt>
      <trkpt lat="61.40569" lon="16.95693">
        <ele>84.758101</ele>
        <time>2020-10-09T09:29:27.718Z</time>
      </trkpt>
      <trkpt lat="61.40358" lon="16.95625">
        <ele>83.413336</ele>
        <time>2020-10-09T09:30:22.718Z</time>
      </trkpt>
      <trkpt lat="61.40157" lon="16.95502">
        <ele>79.777165</ele>
        <time>2020-10-09T09:31:03.721Z</time>
      </trkpt>
      <trkpt lat="61.39961" lon="16.95353">
        <ele>78.683262</ele>
        <time>2020-10-09T09:31:59.773Z</time>
      </trkpt>
      <trkpt lat="61.39772" lon="16.95217">
        <ele>84.013074</ele>
        <time>2020-10-09T09:33:26.735Z</time>
      </trkpt>
      <trkpt lat="61.39575" lon="16.95074">
        <ele>90.808074</ele>
        <time>2020-10-09T09:34:38.720Z</time>
      </trkpt>
      <trkpt lat="61.3936" lon="16.94921">
        <ele>91.257016</ele>
        <time>2020-10-09T09:35:38.724Z</time>
      </trkpt>
      <trkpt lat="61.39147" lon="16.94875">
        <ele>91.599439</ele>
        <time>2020-10-09T09:36:38.742Z</time>
      </trkpt>
      <trkpt lat="61.38889" lon="16.94917">
        <ele>88.616946</ele>
        <time>2020-10-09T09:37:41.733Z</time>
      </trkpt>
      <trkpt lat="61.38652" lon="16.94953">
        <ele>84.187106</ele>
        <time>2020-10-09T09:38:34.732Z</time>
      </trkpt>
      <trkpt lat="61.38417" lon="16.94989">
        <ele>80.840189</ele>
        <time>2020-10-09T09:39:17.733Z</time>
      </trkpt>
      <trkpt lat="61.38175" lon="16.95029">
        <ele>81.901123</ele>
        <time>2020-10-09T09:40:15.734Z</time>
      </trkpt>
      <trkpt lat="61.37969" lon="16.95061">
        <ele>78.973434</ele>
        <time>2020-10-09T09:41:02.717Z</time>
      </trkpt>
      <trkpt lat="61.37774" lon="16.95191">
        <ele>74.878648</ele>
        <time>2020-10-09T09:41:42.737Z</time>
      </trkpt>
      <trkpt lat="61.37551" lon="16.95307">
        <ele>63.916532</ele>
        <time>2020-10-09T09:42:11.715Z</time>
      </trkpt>
      <trkpt lat="61.37292" lon="16.95418">
        <ele>50.18035</ele>
        <time>2020-10-09T09:42:43.724Z</time>
      </trkpt>
      <trkpt lat="61.37009" lon="16.95322">
        <ele>42.249982</ele>
        <time>2020-10-09T09:43:23.722Z</time>
      </trkpt>
      <trkpt lat="61.36779" lon="16.95127">
        <ele>36.566624</ele>
        <time>2020-10-09T09:44:02.715Z</time>
      </trkpt>
      <trkpt lat="61.36632" lon="16.94817">
        <ele>40.740264</ele>
        <time>2020-10-09T09:45:18.745Z</time>
      </trkpt>
      <trkpt lat="61.36496" lon="16.94682">
        <ele>43.696642</ele>
        <time>2020-10-09T09:46:28.716Z</time>
      </trkpt>
      <trkpt lat="61.36323" lon="16.94529">
        <ele>49.899995</ele>
        <time>2020-10-09T09:48:02.753Z</time>
      </trkpt>
      <trkpt lat="61.36174" lon="16.94261">
        <ele>50.225736</ele>
        <time>2020-10-09T09:49:15.729Z</time>
      </trkpt>
      <trkpt lat="61.35955" lon="16.94178">
        <ele>45.839591</ele>
        <time>2020-10-09T09:49:50.723Z</time>
      </trkpt>
      <trkpt lat="61.35756" lon="16.94051">
        <ele>55.332593</ele>
        <time>2020-10-09T09:51:29.729Z</time>
      </trkpt>
      <trkpt lat="61.35568" lon="16.93962">
        <ele>69.184401</ele>
        <time>2020-10-09T09:53:31.744Z</time>
      </trkpt>
      <trkpt lat="61.35382" lon="16.93913">
        <ele>78.488098</ele>
        <time>2020-10-09T09:55:36.710Z</time>
      </trkpt>
      <trkpt lat="61.35218" lon="16.93689">
        <ele>91.841089</ele>
        <time>2020-10-09T09:57:46.724Z</time>
      </trkpt>
      <trkpt lat="61.35032" lon="16.93518">
        <ele>98.773976</ele>
        <time>2020-10-09T09:59:19.736Z</time>
      </trkpt>
      <trkpt lat="61.34821" lon="16.93464">
        <ele>101.171232</ele>
        <time>2020-10-09T10:00:19.763Z</time>
      </trkpt>
      <trkpt lat="61.34603" lon="16.93387">
        <ele>100.680524</ele>
        <time>2020-10-09T10:01:16.723Z</time>
      </trkpt>
      <trkpt lat="61.34381" lon="16.93271">
        <ele>94.153602</ele>
        <time>2020-10-09T10:02:03.762Z</time>
      </trkpt>
      <trkpt lat="61.34168" lon="16.93097">
        <ele>87.127362</ele>
        <time>2020-10-09T10:02:52.720Z</time>
      </trkpt>
      <trkpt lat="61.33931" lon="16.92956">
        <ele>82.026108</ele>
        <time>2020-10-09T10:03:34.728Z</time>
      </trkpt>
      <trkpt lat="61.33718" lon="16.92991">
        <ele>88.189217</ele>
        <time>2020-10-09T10:04:33.716Z</time>
      </trkpt>
      <trkpt lat="61.33534" lon="16.93105">
        <ele>88.415738</ele>
        <time>2020-10-09T10:05:32.735Z</time>
      </trkpt>
      <trkpt lat="61.33334" lon="16.93013">
        <ele>86.333394</ele>
        <time>2020-10-09T10:06:23.725Z</time>
      </trkpt>
      <trkpt lat="61.33154" lon="16.92827">
        <ele>88.828157</ele>
        <time>2020-10-09T10:07:22.739Z</time>
      </trkpt>
      <trkpt lat="61.33002" lon="16.92556">
        <ele>92.703164</ele>
        <time>2020-10-09T10:08:46.744Z</time>
      </trkpt>
      <trkpt lat="61.32808" lon="16.92536">
        <ele>106.779011</ele>
        <time>2020-10-09T10:10:33.724Z</time>
      </trkpt>
      <trkpt lat="61.32607" lon="16.92671">
        <ele>113.226568</ele>
        <time>2020-10-09T10:11:46.741Z</time>
      </trkpt>
      <trkpt lat="61.32395" lon="16.9262">
        <ele>109.834697</ele>
        <time>2020-10-09T10:12:39.722Z</time>
      </trkpt>
      <trkpt lat="61.32196" lon="16.92637">
        <ele>98.474429</ele>
        <time>2020-10-09T10:13:19.738Z</time>
      </trkpt>
      <trkpt lat="61.31988" lon="16.92322">
        <ele>85.658246</ele>
        <time>2020-10-09T10:14:00.735Z</time>
      </trkpt>
      <trkpt lat="61.31775" lon="16.92211">
        <ele>86.156031</ele>
        <time>2020-10-09T10:14:47.710Z</time>
      </trkpt>
      <trkpt lat="61.31582" lon="16.92289">
        <ele>93.698204</ele>
        <time>2020-10-09T10:15:39.737Z</time>
      </trkpt>
      <trkpt lat="61.31399" lon="16.92509">
        <ele>97.937338</ele>
        <time>2020-10-09T10:16:29.734Z</time>
      </trkpt>
      <trkpt lat="61.31176" lon="16.92478">
        <ele>90.386806</ele>
        <time>2020-10-09T10:17:12.730Z</time>
      </trkpt>
      <trkpt lat="61.30945" lon="16.92418">
        <ele>88.159617</ele>
        <time>2020-10-09T10:17:57.728Z</time>
      </trkpt>
      <trkpt lat="61.30769" lon="16.92628">
        <ele>91.449024</ele>
        <time>2020-10-09T10:18:42.738Z</time>
      </trkpt>
      <trkpt lat="61.30604" lon="16.93019">
        <ele>84.844093</ele>
        <time>2020-10-09T10:19:23.729Z</time>
      </trkpt>
      <trkpt lat="61.30438" lon="16.93337">
        <ele>82.998832</ele>
        <time>2020-10-09T10:20:03.704Z</time>
      </trkpt>
      <trkpt lat="61.30226" lon="16.93609">
        <ele>75.072848</ele>
        <time>2020-10-09T10:20:43.750Z</time>
      </trkpt>
      <trkpt lat="61.30008" lon="16.93902">
        <ele>59.403452</ele>
        <time>2020-10-09T10:21:15.716Z</time>
      </trkpt>
      <trkpt lat="61.29796" lon="16.94037">
        <ele>58.884123</ele>
        <time>2020-10-09T10:22:08.737Z</time>
      </trkpt>
      <trkpt lat="61.29584" lon="16.94248">
        <ele>58.705936</ele>
        <time>2020-10-09T10:22:53.748Z</time>
      </trkpt>
      <trkpt lat="61.29354" lon="16.94108">
        <ele>59.903641</ele>
        <time>2020-10-09T10:23:55.717Z</time>
      </trkpt>
      <trkpt lat="61.29172" lon="16.94279">
        <ele>59.383411</ele>
        <time>2020-10-09T10:24:55.755Z</time>
      </trkpt>
      <trkpt lat="61.28976" lon="16.94551">
        <ele>46.175675</ele>
        <time>2020-10-09T10:25:35.752Z</time>
      </trkpt>
      <trkpt lat="61.28909" lon="16.94194">
        <ele>44.629494</ele>
        <time>2020-10-09T10:26:32.749Z</time>
      </trkpt>
      <trkpt lat="61.28883" lon="16.93707">
        <ele>48.511476</ele>
        <time>2020-10-09T10:27:28.731Z</time>
      </trkpt>
      <trkpt lat="61.28817" lon="16.9322">
        <ele>47.786659</ele>
        <time>2020-10-09T10:28:27.740Z</time>
      </trkpt>
      <trkpt lat="61.2875" lon="16.92783">
        <ele>51.602287</ele>
        <time>2020-10-09T10:29:29.749Z</time>
      </trkpt>
      <trkpt lat="61.28687" lon="16.92367">
        <ele>56.596978</ele>
        <time>2020-10-09T10:30:42.759Z</time>
      </trkpt>
      <trkpt lat="61.28594" lon="16.91981">
        <ele>62.407194</ele>
        <time>2020-10-09T10:32:05.756Z</time>
      </trkpt>
      <trkpt lat="61.28448" lon="16.9173">
        <ele>62.878718</ele>
        <time>2020-10-09T10:32:50.753Z</time>
      </trkpt>
      <trkpt lat="61.28464" lon="16.91276">
        <ele>58.443545</ele>
        <time>2020-10-09T10:33:41.730Z</time>
      </trkpt>
      <trkpt lat="61.28374" lon="16.90891">
        <ele>62.405147</ele>
        <time>2020-10-09T10:34:41.752Z</time>
      </trkpt>
      <trkpt lat="61.28193" lon="16.90606">
        <ele>71.237215</ele>
        <time>2020-10-09T10:35:50.746Z</time>
      </trkpt>
      <trkpt lat="61.28033" lon="16.90356">
        <ele>78.153658</ele>
        <time>2020-10-09T10:37:24.740Z</time>
      </trkpt>
      <trkpt lat="61.27917" lon="16.90009">
        <ele>82.017273</ele>
        <time>2020-10-09T10:38:51.741Z</time>
      </trkpt>
      <trkpt lat="61.27862" lon="16.89567">
        <ele>80.740837</ele>
        <time>2020-10-09T10:39:59.760Z</time>
      </trkpt>
      <trkpt lat="61.27807" lon="16.89063">
        <ele>78.259069</ele>
        <time>2020-10-09T10:40:58.740Z</time>
      </trkpt>
      <trkpt lat="61.27746" lon="16.88582">
        <ele>81.096694</ele>
        <time>2020-10-09T10:41:56.763Z</time>
      </trkpt>
      <trkpt lat="61.27577" lon="16.88279">
        <ele>83.542737</ele>
        <time>2020-10-09T10:42:53.749Z</time>
      </trkpt>
      <trkpt lat="61.27411" lon="16.88039">
        <ele>91.98054</ele>
        <time>2020-10-09T10:44:35.744Z</time>
      </trkpt>
      <trkpt lat="61.27264" lon="16.8771">
        <ele>84.137326</ele>
        <time>2020-10-09T10:45:19.742Z</time>
      </trkpt>
      <trkpt lat="61.27224" lon="16.87227">
        <ele>69.970478</ele>
        <time>2020-10-09T10:45:50.756Z</time>
      </trkpt>
      <trkpt lat="61.27167" lon="16.86818">
        <ele>74.269005</ele>
        <time>2020-10-09T10:46:47.744Z</time>
      </trkpt>
      <trkpt lat="61.27101" lon="16.86447">
        <ele>76.35891</ele>
        <time>2020-10-09T10:48:10.746Z</time>
      </trkpt>
      <trkpt lat="61.2699" lon="16.86073">
        <ele>77.681641</ele>
        <time>2020-10-09T10:49:10.758Z</time>
      </trkpt>
      <trkpt lat="61.2694" lon="16.85661">
        <ele>72.809522</ele>
        <time>2020-10-09T10:50:17.749Z</time>
      </trkpt>
      <trkpt lat="61.26908" lon="16.85239">
        <ele>71.264099</ele>
        <time>2020-10-09T11:20:37.350Z</time>
      </trkpt>
      <trkpt lat="61.26807" lon="16.84879">
        <ele>78.045641</ele>
        <time>2020-10-09T11:21:57.399Z</time>
      </trkpt>
      <trkpt lat="61.26666" lon="16.84574">
        <ele>82.040643</ele>
        <time>2020-10-09T11:23:27.359Z</time>
      </trkpt>
      <trkpt lat="61.26677" lon="16.84212">
        <ele>96.859552</ele>
        <time>2020-10-09T11:25:22.350Z</time>
      </trkpt>
      <trkpt lat="61.26632" lon="16.83884">
        <ele>96.998153</ele>
        <time>2020-10-09T11:26:31.372Z</time>
      </trkpt>
      <trkpt lat="61.26509" lon="16.83521">
        <ele>101.516571</ele>
        <time>2020-10-09T11:27:46.354Z</time>
      </trkpt>
      <trkpt lat="61.26395" lon="16.83165">
        <ele>106.506003</ele>
        <time>2020-10-09T11:29:18.383Z</time>
      </trkpt>
      <trkpt lat="61.26167" lon="16.83183">
        <ele>94.525027</ele>
        <time>2020-10-09T11:29:49.351Z</time>
      </trkpt>
      <trkpt lat="61.25995" lon="16.83394">
        <ele>78.663056</ele>
        <time>2020-10-09T11:30:24.357Z</time>
      </trkpt>
      <trkpt lat="61.25821" lon="16.83414">
        <ele>83.096157</ele>
        <time>2020-10-09T11:31:52.356Z</time>
      </trkpt>
      <trkpt lat="61.25632" lon="16.83337">
        <ele>100.40399</ele>
        <time>2020-10-09T11:34:03.413Z</time>
      </trkpt>
      <trkpt lat="61.25443" lon="16.83233">
        <ele>118.480659</ele>
        <time>2020-10-09T11:36:18.353Z</time>
      </trkpt>
      <trkpt lat="61.25253" lon="16.83114">
        <ele>125.524296</ele>
        <time>2020-10-09T11:37:45.363Z</time>
      </trkpt>
      <trkpt lat="61.25056" lon="16.82891">
        <ele>122.776751</ele>
        <time>2020-10-09T11:39:05.362Z</time>
      </trkpt>
      <trkpt lat="61.24848" lon="16.82729">
        <ele>120.472579</ele>
        <time>2020-10-09T11:39:57.359Z</time>
      </trkpt>
      <trkpt lat="61.24644" lon="16.82597">
        <ele>127.068694</ele>
        <time>2020-10-09T11:40:59.348Z</time>
      </trkpt>
      <trkpt lat="61.24427" lon="16.82604">
        <ele>133.446355</ele>
        <time>2020-10-09T11:41:53.373Z</time>
      </trkpt>
      <trkpt lat="61.24216" lon="16.8254">
        <ele>132.2763</ele>
        <time>2020-10-09T11:42:53.351Z</time>
      </trkpt>
      <trkpt lat="61.24049" lon="16.8272">
        <ele>133.617167</ele>
        <time>2020-10-09T11:43:59.364Z</time>
      </trkpt>
      <trkpt lat="61.23857" lon="16.83054">
        <ele>124.28423</ele>
        <time>2020-10-09T11:44:42.357Z</time>
      </trkpt>
      <trkpt lat="61.23681" lon="16.83477">
        <ele>115.626312</ele>
        <time>2020-10-09T11:45:20.372Z</time>
      </trkpt>
      <trkpt lat="61.23519" lon="16.83633">
        <ele>107.700013</ele>
        <time>2020-10-09T11:45:41.399Z</time>
      </trkpt>
      <trkpt lat="61.23378" lon="16.83311">
        <ele>93.238994</ele>
        <time>2020-10-09T11:46:01.356Z</time>
      </trkpt>
      <trkpt lat="61.2315" lon="16.83318">
        <ele>90.109568</ele>
        <time>2020-10-09T11:46:40.358Z</time>
      </trkpt>
      <trkpt lat="61.22955" lon="16.83432">
        <ele>111.878512</ele>
        <time>2020-10-09T11:48:22.378Z</time>
      </trkpt>
      <trkpt lat="61.22767" lon="16.83331">
        <ele>135.185166</ele>
        <time>2020-10-09T11:50:31.354Z</time>
      </trkpt>
      <trkpt lat="61.22577" lon="16.83377">
        <ele>146.442483</ele>
        <time>2020-10-09T11:52:32.375Z</time>
      </trkpt>
      <trkpt lat="61.22415" lon="16.8361">
        <ele>153.735889</ele>
        <time>2020-10-09T11:54:24.363Z</time>
      </trkpt>
      <trkpt lat="61.22257" lon="16.83859">
        <ele>152.073889</ele>
        <time>2020-10-09T11:55:49.357Z</time>
      </trkpt>
      <trkpt lat="61.22052" lon="16.83917">
        <ele>162.764486</ele>
        <time>2020-10-09T11:57:24.358Z</time>
      </trkpt>
      <trkpt lat="61.21855" lon="16.83869">
        <ele>160.65318</ele>
        <time>2020-10-09T11:58:56.366Z</time>
      </trkpt>
      <trkpt lat="61.21652" lon="16.83874">
        <ele>163.30192</ele>
        <time>2020-10-09T12:00:20.372Z</time>
      </trkpt>
      <trkpt lat="61.21457" lon="16.83836">
        <ele>172.408042</ele>
        <time>2020-10-09T12:01:21.358Z</time>
      </trkpt>
      <trkpt lat="61.21247" lon="16.83916">
        <ele>187.454844</ele>
        <time>2020-10-09T12:02:38.383Z</time>
      </trkpt>
      <trkpt lat="61.21031" lon="16.83879">
        <ele>192.186344</ele>
        <time>2020-10-09T12:03:56.355Z</time>
      </trkpt>
      <trkpt lat="61.20827" lon="16.83998">
        <ele>192.810088</ele>
        <time>2020-10-09T12:05:13.395Z</time>
      </trkpt>
      <trkpt lat="61.20629" lon="16.84219">
        <ele>183.854683</ele>
        <time>2020-10-09T12:06:08.354Z</time>
      </trkpt>
      <trkpt lat="61.20404" lon="16.84379">
        <ele>174.639466</ele>
        <time>2020-10-09T12:07:06.361Z</time>
      </trkpt>
      <trkpt lat="61.20202" lon="16.84544">
        <ele>173.184381</ele>
        <time>2020-10-09T12:07:54.371Z</time>
      </trkpt>
      <trkpt lat="61.20027" lon="16.84856">
        <ele>159.868087</ele>
        <time>2020-10-09T12:08:22.392Z</time>
      </trkpt>
      <trkpt lat="61.19913" lon="16.85218">
        <ele>148.120368</ele>
        <time>2020-10-09T12:08:42.375Z</time>
      </trkpt>
      <trkpt lat="61.19767" lon="16.85544">
        <ele>138.747831</ele>
        <time>2020-10-09T12:09:02.369Z</time>
      </trkpt>
      <trkpt lat="61.19557" lon="16.85888">
        <ele>128.208941</ele>
        <time>2020-10-09T12:09:38.370Z</time>
      </trkpt>
      <trkpt lat="61.19317" lon="16.85957">
        <ele>127.311238</ele>
        <time>2020-10-09T12:10:18.396Z</time>
      </trkpt>
      <trkpt lat="61.19075" lon="16.85816">
        <ele>131.295106</ele>
        <time>2020-10-09T12:10:58.372Z</time>
      </trkpt>
      <trkpt lat="61.18888" lon="16.8554">
        <ele>125.273416</ele>
        <time>2020-10-09T12:11:44.375Z</time>
      </trkpt>
      <trkpt lat="61.18662" lon="16.85208">
        <ele>117.037268</ele>
        <time>2020-10-09T12:12:24.351Z</time>
      </trkpt>
      <trkpt lat="61.18469" lon="16.84916">
        <ele>118.565206</ele>
        <time>2020-10-09T12:13:12.362Z</time>
      </trkpt>
      <trkpt lat="61.1827" lon="16.84593">
        <ele>119.373605</ele>
        <time>2020-10-09T12:14:03.350Z</time>
      </trkpt>
      <trkpt lat="61.18097" lon="16.84308">
        <ele>123.416991</ele>
        <time>2020-10-09T12:14:57.356Z</time>
      </trkpt>
      <trkpt lat="61.17883" lon="16.84106">
        <ele>116.954264</ele>
        <time>2020-10-09T12:15:24.415Z</time>
      </trkpt>
      <trkpt lat="61.17603" lon="16.84074">
        <ele>99.524536</ele>
        <time>2020-10-09T12:15:56.374Z</time>
      </trkpt>
      <trkpt lat="61.17373" lon="16.84081">
        <ele>95.864166</ele>
        <time>2020-10-09T12:16:44.415Z</time>
      </trkpt>
      <trkpt lat="61.1715" lon="16.84093">
        <ele>100.016345</ele>
        <time>2020-10-09T12:17:40.426Z</time>
      </trkpt>
      <trkpt lat="61.16946" lon="16.84182">
        <ele>101.117982</ele>
        <time>2020-10-09T12:18:41.374Z</time>
      </trkpt>
      <trkpt lat="61.16745" lon="16.84283">
        <ele>101.060351</ele>
        <time>2020-10-09T12:19:41.375Z</time>
      </trkpt>
      <trkpt lat="61.16545" lon="16.84269">
        <ele>105.851679</ele>
        <time>2020-10-09T12:21:06.386Z</time>
      </trkpt>
      <trkpt lat="61.16347" lon="16.84177">
        <ele>103.762573</ele>
        <time>2020-10-09T12:21:56.377Z</time>
      </trkpt>
      <trkpt lat="61.16164" lon="16.83923">
        <ele>102.98515</ele>
        <time>2020-10-09T12:22:52.367Z</time>
      </trkpt>
      <trkpt lat="61.16037" lon="16.83606">
        <ele>112.325783</ele>
        <time>2020-10-09T12:23:52.383Z</time>
      </trkpt>
      <trkpt lat="61.15903" lon="16.83276">
        <ele>112.150118</ele>
        <time>2020-10-09T12:24:56.362Z</time>
      </trkpt>
      <trkpt lat="61.15765" lon="16.82933">
        <ele>112.561302</ele>
        <time>2020-10-09T12:25:50.397Z</time>
      </trkpt>
      <trkpt lat="61.15628" lon="16.82598">
        <ele>104.154788</ele>
        <time>2020-10-09T12:26:30.374Z</time>
      </trkpt>
      <trkpt lat="61.1549" lon="16.82261">
        <ele>111.330864</ele>
        <time>2020-10-09T12:27:29.399Z</time>
      </trkpt>
      <trkpt lat="61.15349" lon="16.81958">
        <ele>125.490088</ele>
        <time>2020-10-09T12:28:52.366Z</time>
      </trkpt>
      <trkpt lat="61.15188" lon="16.81694">
        <ele>120.84211</ele>
        <time>2020-10-09T12:30:23.414Z</time>
      </trkpt>
      <trkpt lat="61.15029" lon="16.81446">
        <ele>129.961646</ele>
        <time>2020-10-09T12:32:10.382Z</time>
      </trkpt>
      <trkpt lat="61.14868" lon="16.812">
        <ele>145.891935</ele>
        <time>2020-10-09T12:33:59.405Z</time>
      </trkpt>
      <trkpt lat="61.14699" lon="16.80936">
        <ele>151.233899</ele>
        <time>2020-10-09T12:35:42.372Z</time>
      </trkpt>
      <trkpt lat="61.14533" lon="16.80677">
        <ele>155.995287</ele>
        <time>2020-10-09T12:36:53.367Z</time>
      </trkpt>
      <trkpt lat="61.14365" lon="16.80414">
        <ele>151.793852</ele>
        <time>2020-10-09T12:37:42.380Z</time>
      </trkpt>
      <trkpt lat="61.14212" lon="16.8017">
        <ele>141.733928</ele>
        <time>2020-10-09T12:38:22.375Z</time>
      </trkpt>
      <trkpt lat="61.14053" lon="16.79924">
        <ele>133.67604</ele>
        <time>2020-10-09T12:39:02.389Z</time>
      </trkpt>
      <trkpt lat="61.1388" lon="16.79688">
        <ele>133.576178</ele>
        <time>2020-10-09T12:39:42.374Z</time>
      </trkpt>
      <trkpt lat="61.13674" lon="16.79557">
        <ele>145.609069</ele>
        <time>2020-10-09T12:40:48.372Z</time>
      </trkpt>
      <trkpt lat="61.1348" lon="16.79475">
        <ele>151.444456</ele>
        <time>2020-10-09T12:42:13.359Z</time>
      </trkpt>
      <trkpt lat="61.13251" lon="16.79431">
        <ele>149.92019</ele>
        <time>2020-10-09T12:43:18.397Z</time>
      </trkpt>
      <trkpt lat="61.13048" lon="16.79346">
        <ele>150.345366</ele>
        <time>2020-10-09T12:44:06.416Z</time>
      </trkpt>
      <trkpt lat="61.12873" lon="16.79064">
        <ele>151.834891</ele>
        <time>2020-10-09T12:45:03.380Z</time>
      </trkpt>
      <trkpt lat="61.12663" lon="16.78777">
        <ele>139.475987</ele>
        <time>2020-10-09T12:45:43.401Z</time>
      </trkpt>
      <trkpt lat="61.12426" lon="16.7859">
        <ele>132.985328</ele>
        <time>2020-10-09T12:46:23.377Z</time>
      </trkpt>
      <trkpt lat="61.12219" lon="16.7821">
        <ele>125.630049</ele>
        <time>2020-10-09T12:47:03.361Z</time>
      </trkpt>
      <trkpt lat="61.12058" lon="16.7794">
        <ele>132.633136</ele>
        <time>2020-10-09T12:48:20.364Z</time>
      </trkpt>
      <trkpt lat="61.11897" lon="16.77706">
        <ele>138.506438</ele>
        <time>2020-10-09T12:49:51.387Z</time>
      </trkpt>
      <trkpt lat="61.11727" lon="16.77301">
        <ele>132.521632</ele>
        <time>2020-10-09T12:50:33.422Z</time>
      </trkpt>
      <trkpt lat="61.11603" lon="16.76888">
        <ele>124.464891</ele>
        <time>2020-10-09T12:51:13.395Z</time>
      </trkpt>
      <trkpt lat="61.11503" lon="16.76494">
        <ele>124.675045</ele>
        <time>2020-10-09T12:52:03.389Z</time>
      </trkpt>
      <trkpt lat="61.11422" lon="16.76051">
        <ele>120.638992</ele>
        <time>2020-10-09T12:52:52.394Z</time>
      </trkpt>
      <trkpt lat="61.11441" lon="16.75622">
        <ele>124.975538</ele>
        <time>2020-10-09T12:53:49.399Z</time>
      </trkpt>
      <trkpt lat="61.11507" lon="16.75155">
        <ele>126.743798</ele>
        <time>2020-10-09T12:54:47.393Z</time>
      </trkpt>
      <trkpt lat="61.11496" lon="16.74673">
        <ele>122.313821</ele>
        <time>2020-10-09T12:55:47.394Z</time>
      </trkpt>
      <trkpt lat="61.11447" lon="16.74231">
        <ele>123.124149</ele>
        <time>2020-10-09T12:56:47.362Z</time>
      </trkpt>
      <trkpt lat="61.11358" lon="16.73779">
        <ele>121.089493</ele>
        <time>2020-10-09T12:57:50.392Z</time>
      </trkpt>
      <trkpt lat="61.11174" lon="16.73513">
        <ele>115.708362</ele>
        <time>2020-10-09T12:58:41.394Z</time>
      </trkpt>
      <trkpt lat="61.1106" lon="16.7315">
        <ele>119.292356</ele>
        <time>2020-10-09T12:59:46.368Z</time>
      </trkpt>
      <trkpt lat="61.10977" lon="16.72808">
        <ele>128.759413</ele>
        <time>2020-10-09T13:01:29.383Z</time>
      </trkpt>
      <trkpt lat="61.10922" lon="16.72366">
        <ele>130.638156</ele>
        <time>2020-10-09T13:02:40.396Z</time>
      </trkpt>
      <trkpt lat="61.10748" lon="16.72158">
        <ele>133.869066</ele>
        <time>2020-10-09T13:04:01.376Z</time>
      </trkpt>
      <trkpt lat="61.10552" lon="16.7209">
        <ele>150.203844</ele>
        <time>2020-10-09T13:05:49.382Z</time>
      </trkpt>
      <trkpt lat="61.1047" lon="16.71728">
        <ele>168.181273</ele>
        <time>2020-10-09T13:07:34.366Z</time>
      </trkpt>
      <trkpt lat="61.10394" lon="16.71295">
        <ele>165.794557</ele>
        <time>2020-10-09T13:08:45.420Z</time>
      </trkpt>
      <trkpt lat="61.10227" lon="16.71044">
        <ele>159.375479</ele>
        <time>2020-10-09T13:09:28.368Z</time>
      </trkpt>
      <trkpt lat="61.09992" lon="16.70986">
        <ele>152.333154</ele>
        <time>2020-10-09T13:10:08.379Z</time>
      </trkpt>
      <trkpt lat="61.09732" lon="16.70641">
        <ele>138.197939</ele>
        <time>2020-10-09T13:10:48.387Z</time>
      </trkpt>
      <trkpt lat="61.09508" lon="16.70485">
        <ele>130.940772</ele>
        <time>2020-10-09T13:11:28.385Z</time>
      </trkpt>
      <trkpt lat="61.09426" lon="16.70115">
        <ele>131.527963</ele>
        <time>2020-10-09T13:12:34.382Z</time>
      </trkpt>
      <trkpt lat="61.09372" lon="16.69717">
        <ele>134.774977</ele>
        <time>2020-10-09T13:13:15.417Z</time>
      </trkpt>
      <trkpt lat="61.09239" lon="16.69409">
        <ele>150.440627</ele>
        <time>2020-10-09T13:15:04.431Z</time>
      </trkpt>
      <trkpt lat="61.09025" lon="16.69338">
        <ele>153.789422</ele>
        <time>2020-10-09T13:16:23.377Z</time>
      </trkpt>
      <trkpt lat="61.08829" lon="16.69429">
        <ele>146.930683</ele>
        <time>2020-10-09T13:17:23.383Z</time>
      </trkpt>
      <trkpt lat="61.08615" lon="16.69385">
        <ele>149.586713</ele>
        <time>2020-10-09T13:18:16.391Z</time>
      </trkpt>
      <trkpt lat="61.08398" lon="16.69425">
        <ele>153.86887</ele>
        <time>2020-10-09T13:19:09.383Z</time>
      </trkpt>
      <trkpt lat="61.08168" lon="16.69395">
        <ele>154.161751</ele>
        <time>2020-10-09T13:20:07.445Z</time>
      </trkpt>
      <trkpt lat="61.07965" lon="16.6951">
        <ele>164.135492</ele>
        <time>2020-10-09T13:21:00.422Z</time>
      </trkpt>
      <trkpt lat="61.07767" lon="16.69771">
        <ele>152.66203</ele>
        <time>2020-10-09T13:21:59.385Z</time>
      </trkpt>
      <trkpt lat="61.07533" lon="16.69715">
        <ele>151.966301</ele>
        <time>2020-10-09T13:22:55.396Z</time>
      </trkpt>
      <trkpt lat="61.07328" lon="16.69823">
        <ele>148.574097</ele>
        <time>2020-10-09T13:23:36.400Z</time>
      </trkpt>
      <trkpt lat="61.07113" lon="16.6993">
        <ele>147.664411</ele>
        <time>2020-10-09T13:24:16.409Z</time>
      </trkpt>
      <trkpt lat="61.06907" lon="16.69958">
        <ele>144.505337</ele>
        <time>2020-10-09T13:25:24.421Z</time>
      </trkpt>
      <trkpt lat="61.06667" lon="16.70101">
        <ele>139.846817</ele>
        <time>2020-10-09T13:26:07.384Z</time>
      </trkpt>
      <trkpt lat="61.06438" lon="16.7014">
        <ele>137.794516</ele>
        <time>2020-10-09T13:26:47.398Z</time>
      </trkpt>
      <trkpt lat="61.06228" lon="16.70111">
        <ele>142.910183</ele>
        <time>2020-10-09T13:27:38.386Z</time>
      </trkpt>
      <trkpt lat="61.06" lon="16.7003">
        <ele>138.237796</ele>
        <time>2020-10-09T13:28:30.384Z</time>
      </trkpt>
      <trkpt lat="61.05774" lon="16.7003">
        <ele>140.802666</ele>
        <time>2020-10-09T13:29:22.366Z</time>
      </trkpt>
      <trkpt lat="61.05568" lon="16.70007">
        <ele>139.623216</ele>
        <time>2020-10-09T13:30:05.380Z</time>
      </trkpt>
      <trkpt lat="61.05357" lon="16.69892">
        <ele>136.411303</ele>
        <time>2020-10-09T13:30:46.406Z</time>
      </trkpt>
      <trkpt lat="61.05141" lon="16.69788">
        <ele>132.629903</ele>
        <time>2020-10-09T13:31:26.390Z</time>
      </trkpt>
      <trkpt lat="61.04927" lon="16.69745">
        <ele>128.040893</ele>
        <time>2020-10-09T13:32:08.376Z</time>
      </trkpt>
      <trkpt lat="61.04703" lon="16.6964">
        <ele>123.996163</ele>
        <time>2020-10-09T13:32:49.417Z</time>
      </trkpt>
      <trkpt lat="61.04472" lon="16.69281">
        <ele>113.204518</ele>
        <time>2020-10-09T13:33:29.392Z</time>
      </trkpt>
      <trkpt lat="61.04271" lon="16.69091">
        <ele>114.738831</ele>
        <time>2020-10-09T13:34:18.381Z</time>
      </trkpt>
      <trkpt lat="61.04065" lon="16.68894">
        <ele>116.89764</ele>
        <time>2020-10-09T13:35:21.373Z</time>
      </trkpt>
      <trkpt lat="61.03872" lon="16.68711">
        <ele>118.543305</ele>
        <time>2020-10-09T13:36:21.424Z</time>
      </trkpt>
      <trkpt lat="61.03689" lon="16.68536">
        <ele>120.509431</ele>
        <time>2020-10-09T13:37:21.380Z</time>
      </trkpt>
      <trkpt lat="61.03512" lon="16.68374">
        <ele>124.202735</ele>
        <time>2020-10-09T13:38:21.384Z</time>
      </trkpt>
      <trkpt lat="61.03291" lon="16.68342">
        <ele>127.73332</ele>
        <time>2020-10-09T13:39:21.395Z</time>
      </trkpt>
      <trkpt lat="61.0307" lon="16.68439">
        <ele>128.479807</ele>
        <time>2020-10-09T13:40:28.389Z</time>
      </trkpt>
      <trkpt lat="61.02848" lon="16.6843">
        <ele>136.143504</ele>
        <time>2020-10-09T13:41:21.377Z</time>
      </trkpt>
      <trkpt lat="61.02639" lon="16.68373">
        <ele>137.186215</ele>
        <time>2020-10-09T13:42:25.435Z</time>
      </trkpt>
      <trkpt lat="61.02441" lon="16.68251">
        <ele>143.301366</ele>
        <time>2020-10-09T13:44:04.402Z</time>
      </trkpt>
      <trkpt lat="61.02237" lon="16.68166">
        <ele>142.451091</ele>
        <time>2020-10-09T13:45:08.402Z</time>
      </trkpt>
      <trkpt lat="61.02021" lon="16.68177">
        <ele>146.248375</ele>
        <time>2020-10-09T13:46:10.405Z</time>
      </trkpt>
      <trkpt lat="61.01823" lon="16.68271">
        <ele>140.952414</ele>
        <time>2020-10-09T13:46:54.429Z</time>
      </trkpt>
      <trkpt lat="61.01622" lon="16.68352">
        <ele>143.650864</ele>
        <time>2020-10-09T13:48:08.399Z</time>
      </trkpt>
      <trkpt lat="61.01418" lon="16.68292">
        <ele>138.867686</ele>
        <time>2020-10-09T13:49:02.377Z</time>
      </trkpt>
      <trkpt lat="61.01205" lon="16.68202">
        <ele>144.317734</ele>
        <time>2020-10-09T13:50:13.380Z</time>
      </trkpt>
      <trkpt lat="61.00996" lon="16.68112">
        <ele>150.265926</ele>
        <time>2020-10-09T13:51:28.387Z</time>
      </trkpt>
      <trkpt lat="61.00786" lon="16.68072">
        <ele>152.446018</ele>
        <time>2020-10-09T13:52:32.382Z</time>
      </trkpt>
      <trkpt lat="61.00593" lon="16.68216">
        <ele>150.024769</ele>
        <time>2020-10-09T13:53:25.394Z</time>
      </trkpt>
      <trkpt lat="61.00396" lon="16.68366">
        <ele>144.054201</ele>
        <time>2020-10-09T13:54:08.419Z</time>
      </trkpt>
      <trkpt lat="61.00186" lon="16.68315">
        <ele>151.674839</ele>
        <time>2020-10-09T13:55:16.389Z</time>
      </trkpt>
      <trkpt lat="60.99981" lon="16.68411">
        <ele>161.822567</ele>
        <time>2020-10-09T13:56:34.377Z</time>
      </trkpt>
      <trkpt lat="60.99799" lon="16.68613">
        <ele>164.876354</ele>
        <time>2020-10-09T13:57:53.392Z</time>
      </trkpt>
      <trkpt lat="60.99607" lon="16.68718">
        <ele>173.622556</ele>
        <time>2020-10-09T13:59:14.390Z</time>
      </trkpt>
      <trkpt lat="60.9942" lon="16.68843">
        <ele>170.946094</ele>
        <time>2020-10-09T14:00:39.379Z</time>
      </trkpt>
      <trkpt lat="60.9922" lon="16.69029">
        <ele>166.47016</ele>
        <time>2020-10-09T14:01:50.387Z</time>
      </trkpt>
      <trkpt lat="60.99003" lon="16.69161">
        <ele>167.577974</ele>
        <time>2020-10-09T14:14:03.267Z</time>
      </trkpt>
      <trkpt lat="60.988" lon="16.69245">
        <ele>171.236927</ele>
        <time>2020-10-09T14:15:08.267Z</time>
      </trkpt>
      <trkpt lat="60.98596" lon="16.69242">
        <ele>169.774234</ele>
        <time>2020-10-09T14:15:49.249Z</time>
      </trkpt>
      <trkpt lat="60.9838" lon="16.69302">
        <ele>165.118257</ele>
        <time>2020-10-09T14:16:29.236Z</time>
      </trkpt>
      <trkpt lat="60.98158" lon="16.69419">
        <ele>161.952855</ele>
        <time>2020-10-09T14:17:15.271Z</time>
      </trkpt>
      <trkpt lat="60.97931" lon="16.69607">
        <ele>155.544717</ele>
        <time>2020-10-09T14:17:55.239Z</time>
      </trkpt>
      <trkpt lat="60.97692" lon="16.69722">
        <ele>152.643429</ele>
        <time>2020-10-09T14:18:35.254Z</time>
      </trkpt>
      <trkpt lat="60.97486" lon="16.69819">
        <ele>152.89188</ele>
        <time>2020-10-09T14:19:19.239Z</time>
      </trkpt>
      <trkpt lat="60.9727" lon="16.69631">
        <ele>153.513592</ele>
        <time>2020-10-09T14:20:16.266Z</time>
      </trkpt>
      <trkpt lat="60.97051" lon="16.69708">
        <ele>155.280495</ele>
        <time>2020-10-09T14:21:11.250Z</time>
      </trkpt>
      <trkpt lat="60.96841" lon="16.69828">
        <ele>150.881581</ele>
        <time>2020-10-09T14:21:58.239Z</time>
      </trkpt>
      <trkpt lat="60.96653" lon="16.7001">
        <ele>152.240802</ele>
        <time>2020-10-09T14:22:43.282Z</time>
      </trkpt>
      <trkpt lat="60.96462" lon="16.70296">
        <ele>162.282517</ele>
        <time>2020-10-09T14:23:42.260Z</time>
      </trkpt>
      <trkpt lat="60.9636" lon="16.70677">
        <ele>166.64439</ele>
        <time>2020-10-09T14:25:01.261Z</time>
      </trkpt>
      <trkpt lat="60.96229" lon="16.71079">
        <ele>167.699429</ele>
        <time>2020-10-09T14:26:07.258Z</time>
      </trkpt>
      <trkpt lat="60.96079" lon="16.71355">
        <ele>164.390658</ele>
        <time>2020-10-09T14:26:49.250Z</time>
      </trkpt>
      <trkpt lat="60.95912" lon="16.71538">
        <ele>162.888429</ele>
        <time>2020-10-09T14:27:29.272Z</time>
      </trkpt>
      <trkpt lat="60.95718" lon="16.71778">
        <ele>166.178635</ele>
        <time>2020-10-09T14:28:21.266Z</time>
      </trkpt>
      <trkpt lat="60.955" lon="16.71944">
        <ele>163.751892</ele>
        <time>2020-10-09T14:29:13.243Z</time>
      </trkpt>
      <trkpt lat="60.95331" lon="16.72183">
        <ele>159.096082</ele>
        <time>2020-10-09T14:29:58.285Z</time>
      </trkpt>
      <trkpt lat="60.95119" lon="16.72174">
        <ele>156.341645</ele>
        <time>2020-10-09T14:30:43.243Z</time>
      </trkpt>
      <trkpt lat="60.94888" lon="16.72155">
        <ele>155.631937</ele>
        <time>2020-10-09T14:31:23.259Z</time>
      </trkpt>
      <trkpt lat="60.94599" lon="16.72092">
        <ele>145.871304</ele>
        <time>2020-10-09T14:32:05.284Z</time>
      </trkpt>
      <trkpt lat="60.94367" lon="16.72034">
        <ele>141.422852</ele>
        <time>2020-10-09T14:32:48.273Z</time>
      </trkpt>
      <trkpt lat="60.94152" lon="16.7187">
        <ele>140.763509</ele>
        <time>2020-10-09T14:33:28.283Z</time>
      </trkpt>
      <trkpt lat="60.93936" lon="16.71725">
        <ele>137.670052</ele>
        <time>2020-10-09T14:34:08.262Z</time>
      </trkpt>
      <trkpt lat="60.93735" lon="16.71613">
        <ele>135.753839</ele>
        <time>2020-10-09T14:34:49.276Z</time>
      </trkpt>
      <trkpt lat="60.9356" lon="16.71386">
        <ele>135.905487</ele>
        <time>2020-10-09T14:36:11.261Z</time>
      </trkpt>
      <trkpt lat="60.93365" lon="16.71424">
        <ele>140.255408</ele>
        <time>2020-10-09T14:36:56.284Z</time>
      </trkpt>
      <trkpt lat="60.93158" lon="16.71349">
        <ele>140.699197</ele>
        <time>2020-10-09T14:37:43.267Z</time>
      </trkpt>
      <trkpt lat="60.92931" lon="16.71348">
        <ele>137.725857</ele>
        <time>2020-10-09T14:38:31.255Z</time>
      </trkpt>
      <trkpt lat="60.92738" lon="16.71457">
        <ele>135.111662</ele>
        <time>2020-10-09T14:39:11.256Z</time>
      </trkpt>
      <trkpt lat="60.92519" lon="16.71657">
        <ele>133.69878</ele>
        <time>2020-10-09T14:39:51.272Z</time>
      </trkpt>
      <trkpt lat="60.92291" lon="16.7188">
        <ele>129.287801</ele>
        <time>2020-10-09T14:40:31.261Z</time>
      </trkpt>
      <trkpt lat="60.92123" lon="16.72197">
        <ele>124.918905</ele>
        <time>2020-10-09T14:41:11.287Z</time>
      </trkpt>
      <trkpt lat="60.91951" lon="16.72435">
        <ele>121.682125</ele>
        <time>2020-10-09T14:41:51.261Z</time>
      </trkpt>
      <trkpt lat="60.91742" lon="16.72691">
        <ele>115.695903</ele>
        <time>2020-10-09T14:42:31.259Z</time>
      </trkpt>
      <trkpt lat="60.9153" lon="16.72746">
        <ele>117.54521</ele>
        <time>2020-10-09T14:43:15.261Z</time>
      </trkpt>
      <trkpt lat="60.91296" lon="16.727">
        <ele>118.108188</ele>
        <time>2020-10-09T14:44:02.251Z</time>
      </trkpt>
      <trkpt lat="60.91068" lon="16.72709">
        <ele>119.008117</ele>
        <time>2020-10-09T14:44:55.258Z</time>
      </trkpt>
      <trkpt lat="60.90846" lon="16.72615">
        <ele>115.041592</ele>
        <time>2020-10-09T14:45:36.250Z</time>
      </trkpt>
      <trkpt lat="60.90606" lon="16.727">
        <ele>110.51231</ele>
        <time>2020-10-09T14:46:16.245Z</time>
      </trkpt>
      <trkpt lat="60.90382" lon="16.72633">
        <ele>108.139719</ele>
        <time>2020-10-09T14:46:56.260Z</time>
      </trkpt>
      <trkpt lat="60.90167" lon="16.72515">
        <ele>116.892906</ele>
        <time>2020-10-09T14:47:50.258Z</time>
      </trkpt>
      <trkpt lat="60.9002" lon="16.72189">
        <ele>114.57099</ele>
        <time>2020-10-09T14:48:44.259Z</time>
      </trkpt>
      <trkpt lat="60.89809" lon="16.72016">
        <ele>105.848766</ele>
        <time>2020-10-09T14:49:26.252Z</time>
      </trkpt>
      <trkpt lat="60.89601" lon="16.72028">
        <ele>102.572789</ele>
        <time>2020-10-09T14:50:08.258Z</time>
      </trkpt>
      <trkpt lat="60.89355" lon="16.72053">
        <ele>96.193934</ele>
        <time>2020-10-09T14:50:48.258Z</time>
      </trkpt>
      <trkpt lat="60.8917" lon="16.72003">
        <ele>94.50709</ele>
        <time>2020-10-09T14:51:29.258Z</time>
      </trkpt>
      <trkpt lat="60.88969" lon="16.7187">
        <ele>99.666022</ele>
        <time>2020-10-09T14:52:16.248Z</time>
      </trkpt>
      <trkpt lat="60.88834" lon="16.71622">
        <ele>106.156652</ele>
        <time>2020-10-09T14:53:22.257Z</time>
      </trkpt>
      <trkpt lat="60.88651" lon="16.71488">
        <ele>105.392325</ele>
        <time>2020-10-09T14:54:26.253Z</time>
      </trkpt>
      <trkpt lat="60.88451" lon="16.71389">
        <ele>109.126701</ele>
        <time>2020-10-09T14:55:29.252Z</time>
      </trkpt>
      <trkpt lat="60.88255" lon="16.71237">
        <ele>116.165984</ele>
        <time>2020-10-09T14:56:39.282Z</time>
      </trkpt>
      <trkpt lat="60.88035" lon="16.71213">
        <ele>111.11108</ele>
        <time>2020-10-09T14:57:45.244Z</time>
      </trkpt>
      <trkpt lat="60.87852" lon="16.71163">
        <ele>109.548407</ele>
        <time>2020-10-09T14:58:35.254Z</time>
      </trkpt>
      <trkpt lat="60.87688" lon="16.70891">
        <ele>110.290933</ele>
        <time>2020-10-09T14:59:35.249Z</time>
      </trkpt>
      <trkpt lat="60.87521" lon="16.70619">
        <ele>112.750139</ele>
        <time>2020-10-09T15:00:35.278Z</time>
      </trkpt>
      <trkpt lat="60.8733" lon="16.70413">
        <ele>117.106498</ele>
        <time>2020-10-09T15:01:42.291Z</time>
      </trkpt>
      <trkpt lat="60.87133" lon="16.70269">
        <ele>119.107527</ele>
        <time>2020-10-09T15:02:43.260Z</time>
      </trkpt>
      <trkpt lat="60.86924" lon="16.70098">
        <ele>122.429689</ele>
        <time>2020-10-09T15:03:56.271Z</time>
      </trkpt>
      <trkpt lat="60.86724" lon="16.69937">
        <ele>119.46814</ele>
        <time>2020-10-09T15:04:37.284Z</time>
      </trkpt>
      <trkpt lat="60.86523" lon="16.69777">
        <ele>123.569676</ele>
        <time>2020-10-09T15:08:11.266Z</time>
      </trkpt>
      <trkpt lat="60.86301" lon="16.69778">
        <ele>120.125227</ele>
        <time>2020-10-09T15:09:09.254Z</time>
      </trkpt>
      <trkpt lat="60.86088" lon="16.69911">
        <ele>122.426252</ele>
        <time>2020-10-09T15:10:03.264Z</time>
      </trkpt>
      <trkpt lat="60.85865" lon="16.7004">
        <ele>126.719453</ele>
        <time>2020-10-09T15:11:03.251Z</time>
      </trkpt>
      <trkpt lat="60.85646" lon="16.7013">
        <ele>128.526381</ele>
        <time>2020-10-09T15:11:53.271Z</time>
      </trkpt>
      <trkpt lat="60.85425" lon="16.70226">
        <ele>125.257966</ele>
        <time>2020-10-09T15:12:45.266Z</time>
      </trkpt>
      <trkpt lat="60.85224" lon="16.70332">
        <ele>126.33948</ele>
        <time>2020-10-09T15:13:29.271Z</time>
      </trkpt>
      <trkpt lat="60.84993" lon="16.70443">
        <ele>122.023335</ele>
        <time>2020-10-09T15:14:22.264Z</time>
      </trkpt>
      <trkpt lat="60.84787" lon="16.70531">
        <ele>122.691159</ele>
        <time>2020-10-09T15:15:04.270Z</time>
      </trkpt>
      <trkpt lat="60.84577" lon="16.70623">
        <ele>126.828816</ele>
        <time>2020-10-09T15:15:55.254Z</time>
      </trkpt>
      <trkpt lat="60.84363" lon="16.70687">
        <ele>127.208961</ele>
        <time>2020-10-09T15:16:44.290Z</time>
      </trkpt>
      <trkpt lat="60.84158" lon="16.70602">
        <ele>127.096896</ele>
        <time>2020-10-09T15:17:31.267Z</time>
      </trkpt>
      <trkpt lat="60.83943" lon="16.70398">
        <ele>129.867438</ele>
        <time>2020-10-09T15:18:31.279Z</time>
      </trkpt>
      <trkpt lat="60.83737" lon="16.70204">
        <ele>127.533461</ele>
        <time>2020-10-09T15:19:31.282Z</time>
      </trkpt>
      <trkpt lat="60.83518" lon="16.70108">
        <ele>124.973158</ele>
        <time>2020-10-09T15:20:24.291Z</time>
      </trkpt>
      <trkpt lat="60.83294" lon="16.70001">
        <ele>127.357082</ele>
        <time>2020-10-09T15:21:16.261Z</time>
      </trkpt>
      <trkpt lat="60.83081" lon="16.69792">
        <ele>132.853082</ele>
        <time>2020-10-09T15:22:15.257Z</time>
      </trkpt>
      <trkpt lat="60.82871" lon="16.69815">
        <ele>142.130032</ele>
        <time>2020-10-09T15:23:16.282Z</time>
      </trkpt>
      <trkpt lat="60.8267" lon="16.69942">
        <ele>141.450496</ele>
        <time>2020-10-09T15:24:00.286Z</time>
      </trkpt>
      <trkpt lat="60.82462" lon="16.70074">
        <ele>129.400512</ele>
        <time>2020-10-09T15:24:41.253Z</time>
      </trkpt>
      <trkpt lat="60.8225" lon="16.70226">
        <ele>118.691126</ele>
        <time>2020-10-09T15:25:21.262Z</time>
      </trkpt>
      <trkpt lat="60.82081" lon="16.70478">
        <ele>124.79591</ele>
        <time>2020-10-09T15:26:03.282Z</time>
      </trkpt>
      <trkpt lat="60.81874" lon="16.70369">
        <ele>143.273402</ele>
        <time>2020-10-09T15:26:51.260Z</time>
      </trkpt>
      <trkpt lat="60.81659" lon="16.70432">
        <ele>149.199817</ele>
        <time>2020-10-09T15:27:57.266Z</time>
      </trkpt>
      <trkpt lat="60.81462" lon="16.70486">
        <ele>152.85536</ele>
        <time>2020-10-09T15:29:21.287Z</time>
      </trkpt>
      <trkpt lat="60.81252" lon="16.70485">
        <ele>159.543643</ele>
        <time>2020-10-09T15:30:32.273Z</time>
      </trkpt>
      <trkpt lat="60.81031" lon="16.70476">
        <ele>159.134257</ele>
        <time>2020-10-09T15:31:30.258Z</time>
      </trkpt>
      <trkpt lat="60.80816" lon="16.70528">
        <ele>152.859858</ele>
        <time>2020-10-09T15:32:12.281Z</time>
      </trkpt>
      <trkpt lat="60.80621" lon="16.7059">
        <ele>146.427097</ele>
        <time>2020-10-09T15:32:52.278Z</time>
      </trkpt>
      <trkpt lat="60.80419" lon="16.70662">
        <ele>149.612847</ele>
        <time>2020-10-09T15:33:36.271Z</time>
      </trkpt>
      <trkpt lat="60.80209" lon="16.70892">
        <ele>143.073333</ele>
        <time>2020-10-09T15:34:18.267Z</time>
      </trkpt>
      <trkpt lat="60.79971" lon="16.71029">
        <ele>137.092414</ele>
        <time>2020-10-09T15:35:00.265Z</time>
      </trkpt>
      <trkpt lat="60.79764" lon="16.71225">
        <ele>137.450033</ele>
        <time>2020-10-09T15:35:40.266Z</time>
      </trkpt>
      <trkpt lat="60.79569" lon="16.71539">
        <ele>136.065439</ele>
        <time>2020-10-09T15:36:20.271Z</time>
      </trkpt>
      <trkpt lat="60.79382" lon="16.71852">
        <ele>130.415434</ele>
        <time>2020-10-09T15:37:00.277Z</time>
      </trkpt>
      <trkpt lat="60.79181" lon="16.72037">
        <ele>127.52311</ele>
        <time>2020-10-09T15:37:40.299Z</time>
      </trkpt>
      <trkpt lat="60.7896" lon="16.72122">
        <ele>133.854701</ele>
        <time>2020-10-09T15:38:28.297Z</time>
      </trkpt>
      <trkpt lat="60.78747" lon="16.72191">
        <ele>138.068004</ele>
        <time>2020-10-09T15:39:09.271Z</time>
      </trkpt>
      <trkpt lat="60.78552" lon="16.72281">
        <ele>138.887216</ele>
        <time>2020-10-09T15:39:52.275Z</time>
      </trkpt>
      <trkpt lat="60.78335" lon="16.72354">
        <ele>135.554469</ele>
        <time>2020-10-09T15:40:37.307Z</time>
      </trkpt>
      <trkpt lat="60.78133" lon="16.72378">
        <ele>134.308553</ele>
        <time>2020-10-09T15:41:18.281Z</time>
      </trkpt>
      <trkpt lat="60.77938" lon="16.72494">
        <ele>133.634757</ele>
        <time>2020-10-09T15:42:00.273Z</time>
      </trkpt>
      <trkpt lat="60.77727" lon="16.72644">
        <ele>136.983406</ele>
        <time>2020-10-09T15:42:50.279Z</time>
      </trkpt>
    </trkseg>
  </trk>
</gpx>